EZY77T EGGW-ELLX
Flight info
| Callsign | EZY77T |
|---|---|
| Flight time | N/A |
| Altitude | 23000 |
| Route | MATCH Q295 BRAIN P44 DAGGA M85 ITVIP L10 DVR L9 KONAN/N0427F350 UL607 REMBA |
| Aircraft | A320/M-SDE3FGHIRWY/LB1 |
Departure
| Time | 2026-05-04 16:43 |
|---|---|
| Airport | London Luton Airport (EGGW) |
Arrival
| Time | N/A |
|---|---|
| Airport | Luxembourg-Findel International Airport (ELLX) |
| Time | Latitude | Longitude | Altitude | Speed | Heading |
|---|---|---|---|---|---|
| 2026-05-04 16:22 | 51.87927 | -0.37923 | 531 ft | 0 kts | 101° |
| 2026-05-04 16:33 | 51.87934 | -0.37965 | 531 ft | 2 kts | 127° |
| 2026-05-04 16:34 | 51.87958 | -0.37990 | 530 ft | 2 kts | 174° |
| 2026-05-04 16:34 | 51.87973 | -0.37988 | 531 ft | 2 kts | 200° |
| 2026-05-04 16:35 | 51.87986 | -0.37977 | 531 ft | 0 kts | 214° |
| 2026-05-04 16:37 | 51.87962 | -0.37993 | 530 ft | 6 kts | 197° |
| 2026-05-04 16:38 | 51.87857 | -0.37988 | 528 ft | 8 kts | 153° |
| 2026-05-04 16:39 | 51.87773 | -0.37809 | 530 ft | 7 kts | 116° |
| 2026-05-04 16:39 | 51.87700 | -0.37558 | 528 ft | 13 kts | 118° |
| 2026-05-04 16:40 | 51.87550 | -0.37467 | 530 ft | 11 kts | 198° |
| 2026-05-04 16:40 | 51.87480 | -0.37683 | 531 ft | 12 kts | 253° |
| 2026-05-04 16:41 | 51.87405 | -0.38016 | 520 ft | 18 kts | 216° |
| 2026-05-04 16:41 | 51.87263 | -0.37991 | 520 ft | 5 kts | 72° |
| 2026-05-04 16:42 | 51.87703 | -0.35490 | 576 ft | 157 kts | 73° |
| 2026-05-04 16:43 | 51.88323 | -0.32056 | 1725 ft | 169 kts | 69° |
| 2026-05-04 16:43 | 51.89060 | -0.28366 | 2949 ft | 187 kts | 74° |
| 2026-05-04 16:43 | 51.89370 | -0.26294 | 3421 ft | 206 kts | 75° |
| 2026-05-04 16:44 | 51.86688 | -0.18344 | 4974 ft | 268 kts | 161° |
| 2026-05-04 16:45 | 51.83176 | -0.16415 | 4963 ft | 271 kts | 159° |
| 2026-05-04 16:46 | 51.78003 | -0.12864 | 4961 ft | 270 kts | 155° |
| 2026-05-04 16:46 | 51.75350 | -0.09062 | 4950 ft | 267 kts | 107° |
| 2026-05-04 16:47 | 51.75493 | -0.03211 | 4965 ft | 265 kts | 79° |
| 2026-05-04 16:47 | 51.76057 | 0.02561 | 4956 ft | 265 kts | 81° |
| 2026-05-04 16:48 | 51.76812 | 0.11425 | 4961 ft | 266 kts | 81° |
| 2026-05-04 16:48 | 51.77056 | 0.14387 | 5060 ft | 266 kts | 81° |
| 2026-05-04 16:49 | 51.77542 | 0.20347 | 5560 ft | 270 kts | 81° |
| 2026-05-04 16:49 | 51.78034 | 0.26404 | 6980 ft | 279 kts | 82° |
| 2026-05-04 16:50 | 51.78539 | 0.32657 | 8472 ft | 286 kts | 82° |
| 2026-05-04 16:50 | 51.79054 | 0.39061 | 9968 ft | 294 kts | 82° |
| 2026-05-04 16:51 | 51.79581 | 0.45703 | 11502 ft | 309 kts | 82° |
| 2026-05-04 16:51 | 51.79857 | 0.49184 | 12228 ft | 317 kts | 82° |
| 2026-05-04 16:51 | 51.80440 | 0.56617 | 13014 ft | 357 kts | 82° |
| 2026-05-04 16:52 | 51.81096 | 0.65050 | 13670 ft | 392 kts | 83° |
| 2026-05-04 16:52 | 51.81330 | 0.69462 | 14424 ft | 395 kts | 92° |
| 2026-05-04 16:53 | 51.79551 | 0.77697 | 15932 ft | 397 kts | 127° |
| 2026-05-04 16:53 | 51.72570 | 0.84245 | 18244 ft | 396 kts | 164° |
| 2026-05-04 16:54 | 51.69914 | 0.85492 | 19010 ft | 396 kts | 165° |
| 2026-05-04 16:55 | 51.59413 | 0.90521 | 22113 ft | 394 kts | 165° |
| 2026-05-04 16:55 | 51.54098 | 0.93093 | 22988 ft | 410 kts | 165° |
| 2026-05-04 16:56 | 51.48402 | 0.95839 | 22992 ft | 443 kts | 165° |
| 2026-05-04 16:56 | 51.39275 | 1.00250 | 22991 ft | 465 kts | 165° |
| 2026-05-04 16:57 | 51.36136 | 1.01763 | 22991 ft | 466 kts | 165° |
| 2026-05-04 16:57 | 51.30124 | 1.05524 | 22990 ft | 469 kts | 149° |
| 2026-05-04 16:58 | 51.23748 | 1.17279 | 22998 ft | 476 kts | 124° |
| 2026-05-04 16:58 | 51.21982 | 1.21749 | 22993 ft | 476 kts | 123° |
| 2026-05-04 16:59 | 51.18468 | 1.30585 | 22985 ft | 476 kts | 121° |
| 2026-05-04 17:00 | 51.15442 | 1.50751 | 22997 ft | 481 kts | 95° |
| 2026-05-04 17:00 | 51.14761 | 1.66469 | 22992 ft | 482 kts | 96° |
| 2026-05-04 17:01 | 51.14256 | 1.76913 | 22996 ft | 481 kts | 96° |
| 2026-05-04 17:01 | 51.13725 | 1.87388 | 22990 ft | 481 kts | 96° |
| 2026-05-04 17:02 | 51.13096 | 1.97904 | 22991 ft | 479 kts | 99° |
| 2026-05-04 17:02 | 51.11868 | 2.08213 | 22987 ft | 478 kts | 104° |
| 2026-05-04 17:03 | 51.11110 | 2.13332 | 22987 ft | 478 kts | 104° |
| 2026-05-04 17:03 | 51.10347 | 2.18428 | 22989 ft | 478 kts | 104° |
| 2026-05-04 17:03 | 51.08810 | 2.28664 | 22981 ft | 479 kts | 104° |
| 2026-05-04 17:04 | 51.07266 | 2.38930 | 22985 ft | 479 kts | 104° |
| 2026-05-04 17:04 | 51.05724 | 2.49133 | 22977 ft | 479 kts | 104° |
| 2026-05-04 17:05 | 51.04168 | 2.59371 | 22981 ft | 478 kts | 104° |
| 2026-05-04 17:05 | 51.02611 | 2.69549 | 22975 ft | 478 kts | 105° |
| 2026-05-04 17:06 | 51.01031 | 2.79817 | 22969 ft | 478 kts | 105° |
| 2026-05-04 17:06 | 51.00251 | 2.84862 | 22966 ft | 477 kts | 105° |
| 2026-05-04 17:07 | 50.98677 | 2.94990 | 22963 ft | 477 kts | 105° |
| 2026-05-04 17:07 | 50.98150 | 2.98377 | 22967 ft | 477 kts | 105° |
| 2026-05-04 17:07 | 50.97087 | 3.05165 | 22966 ft | 477 kts | 104° |
| 2026-05-04 17:07 | 50.96302 | 3.10172 | 22964 ft | 477 kts | 104° |
| 2026-05-04 17:08 | 50.95511 | 3.15203 | 22966 ft | 478 kts | 104° |
| 2026-05-04 17:08 | 50.93901 | 3.25381 | 22954 ft | 478 kts | 105° |
| 2026-05-04 17:08 | 50.93087 | 3.30502 | 22957 ft | 478 kts | 105° |
| 2026-05-04 17:09 | 50.92273 | 3.35609 | 22951 ft | 477 kts | 105° |
| 2026-05-04 17:09 | 50.91463 | 3.40671 | 22955 ft | 478 kts | 104° |
| 2026-05-04 17:09 | 50.90644 | 3.45778 | 22951 ft | 478 kts | 104° |
| 2026-05-04 17:10 | 50.89007 | 3.55931 | 22947 ft | 478 kts | 105° |
| 2026-05-04 17:10 | 50.86540 | 3.71114 | 22953 ft | 477 kts | 106° |
| 2026-05-04 17:11 | 50.85710 | 3.76192 | 22945 ft | 477 kts | 105° |
| 2026-05-04 17:11 | 50.84874 | 3.81285 | 22952 ft | 478 kts | 105° |
| 2026-05-04 17:11 | 50.83212 | 3.91389 | 22944 ft | 479 kts | 105° |
| 2026-05-04 17:12 | 50.82364 | 3.96518 | 22944 ft | 479 kts | 105° |
| 2026-05-04 17:12 | 50.80687 | 4.06628 | 22948 ft | 479 kts | 105° |
| 2026-05-04 17:13 | 50.78167 | 4.21698 | 22946 ft | 478 kts | 105° |
| 2026-05-04 17:14 | 50.75683 | 4.36512 | 22949 ft | 478 kts | 106° |
| 2026-05-04 17:14 | 50.74831 | 4.41481 | 22955 ft | 478 kts | 106° |
| 2026-05-04 17:14 | 50.73135 | 4.51380 | 22958 ft | 478 kts | 105° |
| 2026-05-04 17:15 | 50.72271 | 4.56421 | 22959 ft | 478 kts | 105° |
| 2026-05-04 17:15 | 50.70605 | 4.66123 | 22949 ft | 478 kts | 107° |
| 2026-05-04 17:16 | 50.68957 | 4.75676 | 22710 ft | 438 kts | 107° |
| 2026-05-04 17:16 | 50.66415 | 4.88682 | 22333 ft | 441 kts | 116° |
| 2026-05-04 17:17 | 50.64857 | 4.92908 | 22270 ft | 456 kts | 126° |
| 2026-05-04 17:17 | 50.58609 | 5.03277 | 24737 ft | 439 kts | 138° |
| 2026-05-04 17:18 | 50.56427 | 5.06627 | 25254 ft | 443 kts | 139° |
| 2026-05-04 17:18 | 50.52116 | 5.13223 | 23943 ft | 446 kts | 138° |
| 2026-05-04 17:19 | 50.47789 | 5.19861 | 22448 ft | 438 kts | 137° |
| 2026-05-04 17:19 | 50.43517 | 5.26424 | 20967 ft | 430 kts | 137° |
| 2026-05-04 17:20 | 50.39290 | 5.32905 | 19491 ft | 423 kts | 137° |
| 2026-05-04 17:20 | 50.34979 | 5.38752 | 18038 ft | 413 kts | 152° |
| 2026-05-04 17:20 | 50.32418 | 5.40611 | 17332 ft | 408 kts | 158° |
| 2026-05-04 17:21 | 50.27284 | 5.43928 | 15931 ft | 402 kts | 158° |
| 2026-05-04 17:21 | 50.22201 | 5.47332 | 14500 ft | 396 kts | 157° |
| 2026-05-04 17:22 | 50.19707 | 5.49043 | 13787 ft | 393 kts | 157° |
| 2026-05-04 17:22 | 50.17215 | 5.50765 | 13071 ft | 390 kts | 156° |
| 2026-05-04 17:23 | 50.09877 | 5.55862 | 10559 ft | 389 kts | 156° |
| 2026-05-04 17:23 | 50.07403 | 5.57581 | 9750 ft | 386 kts | 156° |
| 2026-05-04 17:23 | 50.02593 | 5.60929 | 8184 ft | 379 kts | 156° |
| 2026-05-04 17:24 | 50.00188 | 5.62601 | 7439 ft | 374 kts | 156° |
| 2026-05-04 17:24 | 49.93325 | 5.67360 | 5087 ft | 348 kts | 158° |
| 2026-05-04 17:25 | 49.91198 | 5.68829 | 4206 ft | 329 kts | 158° |
| 2026-05-04 17:25 | 49.87320 | 5.71505 | 3067 ft | 282 kts | 157° |
| 2026-05-04 17:26 | 49.84170 | 5.73680 | 2953 ft | 222 kts | 158° |
| 2026-05-04 17:26 | 49.80065 | 5.76504 | 2959 ft | 215 kts | 158° |
| 2026-05-04 17:27 | 49.77569 | 5.78250 | 2985 ft | 195 kts | 158° |
| 2026-05-04 17:27 | 49.75452 | 5.78850 | 3248 ft | 133 kts | 193° |
| 2026-05-04 17:28 | 49.73435 | 5.78547 | 2332 ft | 150 kts | 180° |
| 2026-05-04 17:29 | 49.70889 | 5.78146 | 1577 ft | 142 kts | 192° |